• Join FlightAware (Why Join?)
  • Login
  • US Flag GB Flag 
00:21 EST


 

Airport Tracker/Info


-or-


 

Live Flight TrackerFlight Track Log ✈ DAL3698 ✈ 22-Apr-2013 ✈ KLAN - KMSP

Flight Track Log - Related Links

Times and Time Zones

All times are in EDT time to prevent confusion due to time zone crossing. See the DAL3698 flight status page for this flight to view local times or setup timezone preferences in your user account.

Time Position Orientation Groundspeed Altitude Reporting Facility
EDT Latitude Longitude Course Direction KTS MPH feet Rate Location/Type
07:32 42.8031 -84.5311 278° West 189 217 2,600  Level Cleveland Center
07:33 42.8289 -84.6392 288° West 249 287 4,500 1,800 Climbing Minneapolis Center
07:34 42.7817 -85.1054 281° West  Level FlightAware Approximate
07:34 42.8272 -84.6800 267° West 232 267 6,200  Level Cleveland Center
07:34 42.8228 -84.7636 266° West 273 314 8,600 2,280 Climbing Chicago Center
07:35 42.7834 -85.2363 270° West  Level FlightAware Approximate
07:35 42.8172 -84.8711 266° West 282 325 10,300  Level Chicago Center
07:36 42.7833 -85.3673 270° West  Level FlightAware Approximate
07:36 42.8106 -85.0006 266° West 329 379 11,500  Level Chicago Center
07:37 42.7855 -85.5038 278° West  Level FlightAware Approximate
07:37 42.8036 -85.1400 266° West 359 413 13,200  Level Chicago Center
07:38 42.7969 -85.2842 266° West 375 432 15,100 1,800 Climbing Chicago Center
07:39 42.7897 -85.4264 266° West 378 435 16,900 1,320 Climbing Chicago Center
07:40 42.7967 -85.5703 274° West 385 443 17,900 1,020 Climbing Chicago Center
07:41 42.8153 -85.7158 280° West 389 448 19,100 1,140 Climbing Chicago Center
07:42 42.8339 -85.8647 280° West 395 455 20,300 1,080 Climbing Chicago Center
07:43 42.8525 -86.0144 280° West 394 453 21,400 1,020 Climbing Chicago Center
07:45 42.8717 -86.1669 280° West 401 461 22,500 1,080 Climbing Chicago Center
07:46 42.8947 -86.3481 280° West 400 460 23,700 900 Climbing Chicago Center
07:47 42.9136 -86.5014 280° West 408 470 24,400 720 Climbing Chicago Center
07:48 42.9319 -86.6558 279° West 411 473 25,200 660 Climbing Chicago Center
07:49 42.9503 -86.8106 279° West 413 475 25,800 360 Climbing Chicago Center
07:50 42.9681 -86.9653 279° West 412 474 26,000 60 Climbing Chicago Center
07:51 42.9878 -87.1233 280° West 424 488 26,000  Level Chicago Center
07:52 43.0056 -87.2819 279° West 423 487 26,000  Level Chicago Center
07:53 43.0258 -87.4614 279° West 426 490 26,000  Level Chicago Center
07:54 43.0797 -87.6064 297° West 439 505 26,000  Level Chicago Center
07:55 43.1464 -87.7419 304° West 430 495 26,000  Level Chicago Center
07:56 43.2144 -87.8775 305° West 431 496 26,000  Level Chicago Center
07:57 43.2919 -88.0356 304° West 430 495 26,000  Level Chicago Center
07:58 43.3589 -88.1706 304° West 427 491 26,000  Level Chicago Center
07:59 43.4256 -88.3064 304° West 429 494 26,000  Level Chicago Center
08:00 43.4861 -88.4331 303° West 434 499 26,000  Level Chicago Center
08:01 43.5669 -88.5969 304° West 433 498 26,000  Level Chicago Center
08:02 43.6331 -88.7347 304° West 433 498 26,000  Level Chicago Center
08:03 43.6653 -88.8008 304° West 430 495 26,000  Level Minneapolis Center
08:04 43.7275 -88.9303 304° West 413 475 26,000  Level Minneapolis Center
08:05 43.7897 -89.0600 304° West 406 467 26,000  Level Minneapolis Center
08:06 43.8514 -89.1914 303° West 407 468 26,000  Level Minneapolis Center
08:07 43.9139 -89.3242 303° West 410 472 26,000  Level Minneapolis Center
08:08 43.9767 -89.4575 303° West 412 474 26,000  Level Minneapolis Center
08:09 44.0383 -89.5878 303° West 408 470 26,000  Level Minneapolis Center
08:10 44.1111 -89.7439 303° West 410 472 26,000  Level Minneapolis Center
08:11 44.1719 -89.8717 304° West 401 461 26,000  Level Minneapolis Center
08:12 44.2311 -90.0011 303° West 397 457 26,000  Level Minneapolis Center
08:13 44.2889 -90.1236 303° West 383 441 26,000  Level Minneapolis Center
08:14 44.3522 -90.2631 302° West 368 423 26,000 -360 Level Minneapolis Center
08:15 44.4069 -90.3836 302° West 367 422 25,200 -900 Descending Minneapolis Center
08:16 44.4636 -90.5050 303° West 371 427 24,200 -600 Descending Minneapolis Center
08:17 44.5108 -90.6269 299° West 361 415 24,000 -120 Descending Minneapolis Center
08:18 44.5606 -90.7800 295° West 369 425 24,000  Level Minneapolis Center
08:19 44.5989 -90.9000 294° West 385 443 24,000  Level Minneapolis Center
08:20 44.6453 -91.0369 295° West 390 449 24,000  Level Minneapolis Center
08:21 44.6828 -91.1472 296° West 391 450 24,000 -780 Level Minneapolis Center
08:22 44.7425 -91.3339 294° West 380 437 22,500 -1,620 Descending Minneapolis Center
08:23 44.7869 -91.4683 295° West 380 437 20,800 -1,620 Descending Minneapolis Center
08:24 44.8294 -91.5969 295° West 371 427 19,200 -1,560 Descending Minneapolis Center
08:26 44.9111 -91.8547 294° West 365 420 16,100 -1,680 Descending Minneapolis Center
08:27 44.9456 -91.9322 302° West 361 415 15,000 -1,980 Descending FAA TRACON SMA TRACON (SMA)
08:27 44.9611 -91.9806 294° West 356 410 14,400 -1,620 Descending FAA TRACON SMA TRACON (SMA)
08:27 44.9722 -92.0192 292° West 351 404 13,900 -1,380 Descending FAA TRACON SMA TRACON (SMA)
08:28 44.9839 -92.0578 293° West 350 403 13,500 -1,500 Descending FAA TRACON SMA TRACON (SMA)
08:28 44.9989 -92.1050 294° West 345 397 12,900 -1,680 Descending FAA TRACON SMA TRACON (SMA)
08:28 45.0108 -92.1422 294° West 343 395 12,400 -1,380 Descending FAA TRACON SMA TRACON (SMA)
08:29 45.0208 -92.1792 291° West 339 390 12,000 -1,500 Descending FAA TRACON SMA TRACON (SMA)
08:29 45.0347 -92.2244 293° West 330 380 11,400 -1,500 Descending FAA TRACON SMA TRACON (SMA)
08:29 45.0458 -92.2617 293° West 331 381 11,000 -600 Descending FAA TRACON SMA TRACON (SMA)
08:30 45.0492 -92.2994 277° West 326 375 11,000  Level FAA TRACON SMA TRACON (SMA)
08:30 45.0442 -92.3472 262° West 321 369 11,000  Level FAA TRACON SMA TRACON (SMA)
08:30 45.0367 -92.3850 254° West 322 371 11,000  Level FAA TRACON SMA TRACON (SMA)
08:31 45.0328 -92.4236 262° West 323 372 11,000 -360 Level FAA TRACON SMA TRACON (SMA)
08:31 45.0183 -92.4656 244° Southwest 312 359 10,800 -780 Descending FAA TRACON SMA TRACON (SMA)
08:31 44.9981 -92.4853 215° Southwest 306 352 10,500 -1,200 Descending FAA TRACON SMA TRACON (SMA)
08:32 44.9767 -92.5017 208° Southwest 290 334 10,000 -1,500 Descending FAA TRACON SMA TRACON (SMA)
08:32 44.9581 -92.5200 215° Southwest 275 316 9,500 -1,500 Descending FAA TRACON SMA TRACON (SMA)
08:32 44.9375 -92.5450 221° Southwest 260 299 9,000 -780 Descending FAA TRACON SMA TRACON (SMA)
08:33 44.9194 -92.5650 218° Southwest 260 299 9,000  Level FAA TRACON SMA TRACON (SMA)
08:33 44.8981 -92.5903 220° Southwest 262 302 9,000  Level FAA TRACON SMA TRACON (SMA)
08:33 44.8814 -92.6108 221° Southwest 258 297 9,000  Level FAA TRACON SMA TRACON (SMA)
08:34 44.8636 -92.6308 219° Southwest 262 302 9,000  Level FAA TRACON SMA TRACON (SMA)
08:34 44.8425 -92.6567 221° Southwest 264 304 9,000 -600 Level FAA TRACON SMA TRACON (SMA)
08:34 44.8250 -92.6767 219° Southwest 261 300 8,600 -1,500 Descending FAA TRACON SMA TRACON (SMA)
08:35 44.8106 -92.7011 230° Southwest 264 304 8,000 -1,800 Descending FAA TRACON SMA TRACON (SMA)
08:35 44.8019 -92.7378 252° West 263 303 7,400 -1,500 Descending FAA TRACON SMA TRACON (SMA)
08:35 44.7933 -92.7664 247° West 259 298 7,000 -1,080 Descending FAA TRACON SMA TRACON (SMA)
08:36 44.7794 -92.7867 226° Southwest 251 289 6,700 -900 Descending FAA TRACON SMA TRACON (SMA)
08:36 44.7614 -92.8081 220° Southwest 224 258 6,400 -780 Descending FAA TRACON SMA TRACON (SMA)
08:36 44.7489 -92.8233 221° Southwest 204 235 6,200 -660 Descending FAA TRACON SMA TRACON (SMA)
08:37 44.7419 -92.8436 244° Southwest 202 232 6,000 -300 Descending FAA TRACON SMA TRACON (SMA)
08:37 44.7425 -92.8669 272° West 196 226 6,000  Level FAA TRACON SMA TRACON (SMA)
08:37 44.7444 -92.8958 275° West 193 222 6,000 -300 Level FAA TRACON SMA TRACON (SMA)
08:38 44.7508 -92.9169 293° West 197 227 5,800 -900 Descending FAA TRACON SMA TRACON (SMA)
08:38 44.7594 -92.9375 301° West 200 230 5,400 -1,320 Descending FAA TRACON SMA TRACON (SMA)
08:38 44.7700 -92.9628 300° West 196 226 4,900 -1,200 Descending FAA TRACON SMA TRACON (SMA)
08:39 44.7789 -92.9831 302° West 194 223 4,600 -1,080 Descending FAA TRACON SMA TRACON (SMA)
08:39 44.7875 -93.0036 301° West 198 228 4,200 -1,200 Descending FAA TRACON SMA TRACON (SMA)
08:39 44.7986 -93.0286 302° West 197 227 3,800 -1,080 Descending FAA TRACON SMA TRACON (SMA)
08:40 44.8067 -93.0469 302° West 183 211 3,500 -900 Descending FAA TRACON SMA TRACON (SMA)
08:40 44.8142 -93.0639 302° West 170 196 3,200 -1,080 Descending FAA TRACON SMA TRACON (SMA)
08:40 44.8233 -93.0856 301° West 167 192 2,800 -1,080 Descending FAA TRACON SMA TRACON (SMA)
08:41 44.8308 -93.1025 302° West 164 189 2,500 -780 Descending FAA TRACON SMA TRACON (SMA)
08:41 44.8375 -93.1183 301° West 157 181 2,300 -780 Descending FAA TRACON SMA TRACON (SMA)
08:41 44.8453 -93.1364 301° West 143 165 2,000 -900 Descending FAA TRACON SMA TRACON (SMA)